Time;durP1;ratioP1;P1;durP2;ratioP2;P2;SDS_P1;SDS_P2;PMS_P1;PMS_P2;Temp;Humidity;BMP_temperature;BMP_pressure;BME280_temperature;BME280_humidity;BME280_pressure;Samples;Min_cycle;Max_cycle;Signal;HPM_P1;HPM_P2
2022/12/12 00:02:01;;;;;;;40.80;15.80;;;;;;;-3.55;100.00;97403.20;214315;1310;22714;-75
2022/12/12 00:07:02;;;;;;;42.70;15.50;;;;;;;-3.55;100.00;97403.76;213932;1310;24300;-76
2022/12/12 00:12:07;;;;;;;43.10;16.40;;;;;;;-3.54;100.00;97397.34;214209;1310;22686;-76
2022/12/12 00:17:09;;;;;;;46.40;16.60;;;;;;;-3.53;100.00;97397.69;214084;1310;22513;-75
2022/12/12 00:22:10;;;;;;;42.00;15.00;;;;;;;-3.52;100.00;97398.91;214260;1310;22505;-74
2022/12/12 00:27:12;;;;;;;35.60;13.70;;;;;;;-3.52;100.00;97401.52;214242;1310;25496;-74
2022/12/12 00:32:14;;;;;;;33.80;12.60;;;;;;;-3.54;100.00;97402.64;214091;1310;25578;-74
2022/12/12 00:37:16;;;;;;;42.00;16.60;;;;;;;-3.55;100.00;97401.94;214213;1310;24441;-74
2022/12/12 00:42:18;;;;;;;49.20;16.60;;;;;;;-3.53;100.00;97409.52;214053;1310;25538;-75
2022/12/12 00:47:20;;;;;;;45.80;15.40;;;;;;;-3.51;100.00;97407.87;214260;1310;22678;-75
2022/12/12 00:52:21;;;;;;;45.10;14.10;;;;;;;-3.54;100.00;97408.05;214116;1310;22777;-75
2022/12/12 00:57:23;;;;;;;24.80;11.70;;;;;;;-3.56;100.00;97407.45;214138;1310;22903;-75
2022/12/12 01:02:25;;;;;;;30.90;11.40;;;;;;;-3.64;100.00;97406.59;214254;1299;24900;-74
2022/12/12 01:07:29;;;;;;;26.20;9.60;;;;;;;-3.64;100.00;97407.83;214095;1310;22536;-75
2022/12/12 01:12:30;;;;;;;20.70;8.60;;;;;;;-3.66;100.00;97410.25;214063;1310;22487;-75
2022/12/12 01:17:36;;;;;;;19.80;8.40;;;;;;;-3.73;100.00;97408.74;214079;1310;22684;-75
2022/12/12 01:22:38;;;;;;;19.60;8.60;;;;;;;-3.78;100.00;97406.19;214132;1310;25449;-75
2022/12/12 01:27:40;;;;;;;20.90;8.50;;;;;;;-3.81;100.00;97403.86;214248;1310;22528;-76
2022/12/12 01:32:42;;;;;;;18.90;8.10;;;;;;;-3.82;100.00;97401.59;214035;1310;22630;-74
2022/12/12 01:37:43;;;;;;;14.40;7.90;;;;;;;-3.84;100.00;97398.45;214255;1310;24183;-75
2022/12/12 01:42:45;;;;;;;20.70;8.50;;;;;;;-3.86;100.00;97392.09;214056;1310;25253;-76
2022/12/12 01:47:47;;;;;;;24.50;9.60;;;;;;;-3.87;100.00;97385.10;213931;1310;22533;-75
2022/12/12 01:52:49;;;;;;;22.50;8.40;;;;;;;-3.85;100.00;97386.46;214222;1310;25607;-75
2022/12/12 01:57:53;;;;;;;16.90;7.70;;;;;;;-3.83;100.00;97387.02;213951;1310;23886;-77
2022/12/12 02:02:55;;;;;;;20.70;9.00;;;;;;;-3.84;100.00;97381.98;214063;1310;25479;-75
2022/12/12 02:07:59;;;;;;;20.80;9.10;;;;;;;-3.84;100.00;97383.80;214162;1310;22622;-74
2022/12/12 02:13:13;;;;;;;25.60;10.10;;;;;;;-3.82;100.00;97375.89;214468;1310;22750;-75
2022/12/12 02:18:32;;;;;;;20.70;7.90;;;;;;;-3.79;100.00;97374.48;214154;1310;26457;-74
2022/12/12 02:24:03;;;;;;;21.50;9.10;;;;;;;-3.79;100.00;97378.10;214263;1310;25112;-74
2022/12/12 02:29:29;;;;;;;18.20;8.10;;;;;;;-3.82;100.00;97376.79;214071;1310;22599;-75
2022/12/12 02:35:02;;;;;;;18.20;7.90;;;;;;;-3.82;100.00;97372.55;214187;1310;22602;-75
2022/12/12 02:40:19;;;;;;;19.60;9.30;;;;;;;-3.84;100.00;97373.02;214243;1310;25537;-75
2022/12/12 02:45:35;;;;;;;17.10;7.70;;;;;;;-3.86;100.00;97377.86;214248;1310;25510;-75
2022/12/12 02:50:39;;;;;;;20.00;9.50;;;;;;;-3.86;100.00;97377.67;214179;1310;25691;-75
2022/12/12 02:55:41;;;;;;;19.30;7.80;;;;;;;-3.84;100.00;97374.49;214234;1310;26774;-75
2022/12/12 03:01:09;;;;;;;18.40;7.90;;;;;;;-3.83;100.00;97374.10;214133;1310;24288;-74
2022/12/12 03:12:08;;;;;;;21.00;8.70;;;;;;;-3.80;100.00;97374.63;214212;1306;22473;-74
2022/12/12 03:17:21;;;;;;;18.10;7.60;;;;;;;-3.80;100.00;97375.47;214250;1310;25492;-77
2022/12/12 03:22:41;;;;;;;20.90;9.60;;;;;;;-3.82;100.00;97380.45;214048;1309;22575;-76
2022/12/12 03:27:56;;;;;;;19.00;8.10;;;;;;;-3.79;100.00;97377.99;214016;1310;22620;-75
2022/12/12 03:33:10;;;;;;;19.70;8.60;;;;;;;-3.76;100.00;97380.52;214034;1310;22941;-75
2022/12/12 03:38:21;;;;;;;20.70;9.10;;;;;;;-3.74;100.00;97375.42;214274;1310;22538;-74
2022/12/12 03:43:34;;;;;;;27.10;10.10;;;;;;;-3.75;100.00;97382.13;214129;1310;22602;-75
2022/12/12 03:48:41;;;;;;;19.50;9.50;;;;;;;-3.73;100.00;97379.32;214150;1310;26665;-76
2022/12/12 03:53:55;;;;;;;27.20;10.60;;;;;;;-3.74;100.00;97379.70;214041;1310;25591;-75
2022/12/12 03:59:13;;;;;;;26.30;11.20;;;;;;;-3.71;100.00;97376.59;214026;1309;22487;-75
2022/12/12 04:04:33;;;;;;;24.60;9.80;;;;;;;-3.68;100.00;97375.83;213921;1310;22717;-75
2022/12/12 04:15:01;;;;;;;27.60;11.80;;;;;;;-3.64;100.00;97372.96;214197;1310;22541;-75
2022/12/12 04:31:10;;;;;;;25.30;9.90;;;;;;;-3.65;100.00;97371.64;214202;1310;23235;-75
2022/12/12 04:36:15;;;;;;;23.00;8.30;;;;;;;-3.61;100.00;97373.34;214016;1310;26659;-75
2022/12/12 04:41:20;;;;;;;28.60;9.70;;;;;;;-3.64;100.00;97374.89;214224;1310;27699;-75
2022/12/12 04:46:25;;;;;;;26.40;10.00;;;;;;;-3.67;100.00;97373.27;214175;1306;22526;-74
2022/12/12 04:51:34;;;;;;;26.30;11.90;;;;;;;-3.66;100.00;97371.19;214065;1310;25496;-75
2022/12/12 04:56:38;;;;;;;31.90;12.70;;;;;;;-3.65;100.00;97368.45;214494;1310;25589;-75
2022/12/12 05:01:55;;;;;;;30.10;10.90;;;;;;;-3.59;100.00;97372.06;214146;1310;22979;-75
2022/12/12 05:07:03;;;;;;;29.30;11.00;;;;;;;-3.56;100.00;97374.33;214035;1310;22638;-75
2022/12/12 05:12:05;;;;;;;34.60;12.60;;;;;;;-3.55;100.00;97369.27;214029;1310;25495;-74
2022/12/12 05:17:12;;;;;;;39.10;12.90;;;;;;;-3.54;100.00;97365.05;214043;1310;22663;-75
2022/12/12 05:22:14;;;;;;;36.50;12.90;;;;;;;-3.50;100.00;97365.64;214081;1310;22575;-76
2022/12/12 05:27:16;;;;;;;31.60;12.80;;;;;;;-3.46;100.00;97364.99;214117;1310;26190;-75
2022/12/12 05:32:17;;;;;;;46.30;16.20;;;;;;;-3.45;100.00;97367.84;214374;1310;22505;-76
2022/12/12 05:37:19;;;;;;;41.60;15.10;;;;;;;-3.45;100.00;97368.52;214260;1310;22506;-74
2022/12/12 05:42:21;;;;;;;48.20;16.10;;;;;;;-3.46;100.00;97371.11;214054;1310;22613;-74
2022/12/12 05:47:23;;;;;;;41.90;14.70;;;;;;;-3.46;100.00;97375.98;213949;1301;22666;-75
2022/12/12 05:52:26;;;;;;;45.30;15.60;;;;;;;-3.48;100.00;97373.34;213999;1310;22615;-74
2022/12/12 05:57:28;;;;;;;45.90;15.80;;;;;;;-3.51;100.00;97381.92;214009;1310;25486;-74
2022/12/12 06:02:29;;;;;;;41.20;16.10;;;;;;;-3.51;100.00;97385.15;214098;1310;22472;-74
2022/12/12 06:07:31;;;;;;;35.10;13.90;;;;;;;-3.53;100.00;97382.41;214060;1310;25475;-77
2022/12/12 06:12:33;;;;;;;46.80;16.00;;;;;;;-3.51;100.00;97389.39;214082;1310;22560;-75
2022/12/12 06:17:35;;;;;;;40.70;14.50;;;;;;;-3.50;100.00;97389.85;214022;1310;25456;-74
2022/12/12 06:22:36;;;;;;;37.40;14.50;;;;;;;-3.50;100.00;97396.14;214115;1307;22554;-74
2022/12/12 06:27:38;;;;;;;37.50;12.60;;;;;;;-3.53;100.00;97400.63;214037;1310;25513;-76
2022/12/12 06:32:40;;;;;;;31.50;11.70;;;;;;;-3.58;100.00;97403.82;214090;1310;25545;-75
2022/12/12 06:37:41;;;;;;;40.40;14.60;;;;;;;-3.61;100.00;97411.31;214239;1310;24276;-75
2022/12/12 06:42:43;;;;;;;36.60;13.20;;;;;;;-3.58;100.00;97410.19;214353;1282;22462;-75
2022/12/12 06:47:50;;;;;;;35.30;12.30;;;;;;;-3.58;100.00;97413.02;214561;1287;22593;-76
2022/12/12 06:52:52;;;;;;;28.90;12.70;;;;;;;-3.52;100.00;97417.92;214956;1288;22483;-76
2022/12/12 06:57:53;;;;;;;30.20;12.80;;;;;;;-3.49;100.00;97423.48;214337;1288;24544;-75
2022/12/12 07:02:55;;;;;;;32.90;13.30;;;;;;;-3.43;100.00;97423.66;214645;1278;22598;-76
2022/12/12 07:07:58;;;;;;;29.90;11.80;;;;;;;-3.39;100.00;97426.34;214558;1281;25498;-76
2022/12/12 07:12:59;;;;;;;26.80;12.50;;;;;;;-3.37;100.00;97427.60;214843;1281;24247;-74
2022/12/12 07:18:01;;;;;;;24.70;11.50;;;;;;;-3.34;100.00;97431.23;214657;1281;139071;-76
2022/12/12 07:23:03;;;;;;;24.10;10.20;;;;;;;-3.30;100.00;97438.90;214423;1288;139089;-75
2022/12/12 07:28:05;;;;;;;24.10;10.70;;;;;;;-3.28;100.00;97436.42;214565;1281;139210;-76
2022/12/12 07:33:08;;;;;;;23.90;10.30;;;;;;;-3.24;100.00;97434.66;214371;1285;139333;-75
2022/12/12 07:38:10;;;;;;;18.50;8.60;;;;;;;-3.16;100.00;97439.06;214424;1281;139304;-75
2022/12/12 07:43:12;;;;;;;21.70;9.30;;;;;;;-3.12;100.00;97442.86;214468;1281;22719;-76
2022/12/12 07:48:14;;;;;;;25.20;10.10;;;;;;;-3.09;100.00;97441.52;214449;1287;140522;-75
2022/12/12 07:53:15;;;;;;;21.30;9.30;;;;;;;-3.01;100.00;97439.81;214398;1294;139863;-73
2022/12/12 07:58:17;;;;;;;19.80;8.90;;;;;;;-2.94;100.00;97438.50;214761;1281;139074;-75
2022/12/12 08:03:19;;;;;;;21.10;9.40;;;;;;;-2.89;100.00;97438.63;214331;1289;139017;-76
2022/12/12 08:08:21;;;;;;;18.70;8.70;;;;;;;-2.85;100.00;97443.79;214351;1281;139296;-76
2022/12/12 08:13:23;;;;;;;19.00;8.70;;;;;;;-2.83;100.00;97445.66;214407;1281;24306;-76
2022/12/12 08:18:24;;;;;;;17.30;8.30;;;;;;;-2.78;100.00;97443.82;214427;1288;138591;-76
2022/12/12 08:23:26;;;;;;;20.50;10.00;;;;;;;-2.68;100.00;97446.67;214416;1294;139018;-78
2022/12/12 08:28:28;;;;;;;25.50;10.80;;;;;;;-2.59;100.00;97449.92;214128;1288;139420;-77
2022/12/12 08:33:30;;;;;;;25.60;10.10;;;;;;;-2.41;100.00;97448.70;214316;1310;139189;-77
2022/12/12 08:38:32;;;;;;;24.00;10.20;;;;;;;-2.31;100.00;97450.77;214269;1281;139232;-76
2022/12/12 08:43:35;;;;;;;19.90;9.80;;;;;;;-2.21;100.00;97451.71;214513;1286;139331;-76
2022/12/12 08:48:37;;;;;;;20.50;9.00;;;;;;;-2.05;100.00;97449.87;214700;1280;26574;-78
2022/12/12 08:53:39;;;;;;;22.20;9.90;;;;;;;-1.91;100.00;97454.52;214315;1281;138740;-77
2022/12/12 08:58:41;;;;;;;22.10;10.30;;;;;;;-1.74;100.00;97458.29;214357;1278;138873;-77
2022/12/12 09:03:43;;;;;;;21.70;10.70;;;;;;;-1.61;100.00;97459.70;214237;1288;139443;-76
2022/12/12 09:08:45;;;;;;;24.90;10.70;;;;;;;-1.46;100.00;97457.16;214361;1281;139006;-77
2022/12/12 09:13:47;;;;;;;20.70;9.10;;;;;;;-1.39;100.00;97461.15;214329;1284;139112;-77
2022/12/12 09:18:48;;;;;;;28.90;12.30;;;;;;;-1.30;100.00;97462.52;214731;1280;24304;-78
2022/12/12 09:23:50;;;;;;;26.10;12.70;;;;;;;-1.29;99.90;97462.85;214553;1288;138777;-78
2022/12/12 09:28:52;;;;;;;24.90;11.70;;;;;;;-1.23;99.94;97465.18;214499;1295;138735;-77
2022/12/12 09:33:54;;;;;;;30.00;11.70;;;;;;;-1.16;100.00;97463.90;214449;1284;139009;-77
2022/12/12 09:38:55;;;;;;;27.40;11.80;;;;;;;-1.09;100.00;97461.19;214491;1288;139036;-77
2022/12/12 09:44:08;;;;;;;23.50;11.40;;;;;;;-1.11;100.00;97460.65;214396;1281;139077;-78
2022/12/12 09:49:15;;;;;;;27.10;12.10;;;;;;;-1.10;99.87;97457.14;214730;1289;22466;-78
2022/12/12 09:54:20;;;;;;;31.00;13.10;;;;;;;-1.15;99.56;97457.65;214578;1310;138413;-78
2022/12/12 09:59:34;;;;;;;27.90;12.60;;;;;;;-1.22;99.27;97463.09;214320;1303;138910;-78
2022/12/12 10:04:43;;;;;;;28.10;12.20;;;;;;;-1.22;99.80;97459.04;214169;1307;138843;-78
2022/12/12 10:10:09;;;;;;;23.30;11.60;;;;;;;-1.28;99.57;97461.80;214401;1293;138877;-77
2022/12/12 10:15:19;;;;;;;;;;;;;;;-1.33;99.54;97468.00;214330;1295;138963;-77
2022/12/12 10:20:24;;;;;;;24.10;11.50;;;;;;;-1.29;99.83;97465.53;214411;1311;125108;-77
2022/12/12 10:25:29;;;;;;;21.70;11.30;;;;;;;-1.35;99.76;97468.44;214294;1294;138873;-78
2022/12/12 10:30:54;;;;;;;24.90;11.50;;;;;;;-1.37;99.67;97466.21;209042;1342;544907;-77
2022/12/12 10:36:04;;;;;;;22.80;10.60;;;;;;;-1.35;99.96;97464.48;213393;1317;137782;-77
2022/12/12 10:41:06;;;;;;;;;;;;;;;-1.26;100.00;97463.41;212835;1299;191329;-78
2022/12/12 10:46:23;;;;;;;18.60;9.90;;;;;;;-1.17;99.83;97459.64;213810;1292;124093;-76
2022/12/12 10:51:27;;;;;;;20.30;9.00;;;;;;;-1.16;99.31;97456.02;213997;1287;137662;-76
2022/12/12 10:56:30;;;;;;;14.30;7.80;;;;;;;-1.14;99.41;97456.45;213948;1300;137818;-76
2022/12/12 11:01:35;;;;;;;16.50;8.10;;;;;;;-1.09;99.22;97456.73;213990;1311;137875;-76
2022/12/12 11:06:57;;;;;;;17.10;8.80;;;;;;;-1.07;99.18;97463.60;214387;1281;25314;-76
2022/12/12 11:12:12;;;;;;;14.10;7.70;;;;;;;-0.94;99.76;97459.95;214469;1287;137528;-77
2022/12/12 11:17:32;;;;;;;16.70;8.50;;;;;;;-0.76;99.74;97454.25;214419;1287;137775;-76
2022/12/12 11:22:37;;;;;;;19.40;9.50;;;;;;;-0.61;99.71;97455.36;214360;1287;138077;-76
2022/12/12 11:27:40;;;;;;;19.90;8.30;;;;;;;-0.49;99.73;97456.16;214380;1287;138002;-75
2022/12/12 11:32:46;;;;;;;18.90;9.90;;;;;;;-0.43;98.85;97453.48;214257;1288;138016;-76
2022/12/12 11:37:53;;;;;;;20.70;10.00;;;;;;;-0.39;99.01;97453.67;214402;1280;138547;-75
2022/12/12 11:43:25;;;;;;;23.50;11.20;;;;;;;-0.36;98.95;97454.12;214281;1287;23463;-75
2022/12/12 11:48:51;;;;;;;23.00;10.90;;;;;;;-0.26;98.96;97458.99;214057;1307;24314;-75
2022/12/12 11:53:52;;;;;;;27.00;12.50;;;;;;;-0.22;99.05;97455.87;214380;1310;137942;-74
2022/12/12 11:59:14;;;;;;;20.50;11.10;;;;;;;-0.17;99.44;97458.66;214183;1304;138008;-74
2022/12/12 12:04:42;;;;;;;25.00;11.30;;;;;;;-0.18;98.79;97465.75;214405;1287;138007;-75
2022/12/12 12:09:55;;;;;;;23.10;10.60;;;;;;;-0.25;98.52;97467.17;214404;1287;137997;-75
2022/12/12 12:15:18;;;;;;;23.90;11.80;;;;;;;-0.25;99.54;97473.85;214426;1288;138607;-74
2022/12/12 12:20:35;;;;;;;22.40;11.60;;;;;;;-0.30;98.69;97478.91;214467;1281;138629;-75
2022/12/12 12:26:21;;;;;;;25.10;13.00;;;;;;;-0.32;98.85;97479.46;214420;1281;138915;-74
2022/12/12 12:31:39;;;;;;;30.20;14.10;;;;;;;-0.16;99.78;97483.77;214244;1293;22539;-74
2022/12/12 12:37:03;;;;;;;32.60;14.60;;;;;;;-0.06;99.30;97482.80;214517;1289;22983;-75
2022/12/12 12:42:11;;;;;;;27.10;13.90;;;;;;;-0.01;99.09;97477.73;214153;1304;138269;-75
2022/12/12 12:47:24;;;;;;;30.50;15.10;;;;;;;-0.04;98.72;97479.66;214312;1295;138030;-75
2022/12/12 12:52:35;;;;;;;30.30;14.10;;;;;;;-0.14;98.48;97479.16;214290;1291;138772;-75
2022/12/12 12:57:42;;;;;;;32.00;15.10;;;;;;;-0.15;98.77;97483.30;214297;1290;138270;-79
2022/12/12 13:02:59;;;;;;;22.10;11.10;;;;;;;-0.16;98.57;97489.95;214863;1288;138101;-78
2022/12/12 13:08:23;;;;;;;27.30;14.00;;;;;;;-0.36;97.92;97500.71;214578;1281;138117;-78
2022/12/12 13:13:29;;;;;;;30.40;13.80;;;;;;;-0.46;98.28;97495.29;214461;1294;22495;-76
2022/12/12 13:18:31;;;;;;;30.60;14.50;;;;;;;-0.48;99.06;97496.90;214228;1289;138205;-80
2022/12/12 13:24:07;;;;;;;32.10;15.60;;;;;;;-0.53;99.05;97501.11;214366;1312;138237;-79
2022/12/12 13:29:22;;;;;;;29.10;14.10;;;;;;;-0.61;98.83;97506.08;214217;1307;138734;-79
2022/12/12 13:34:26;;;;;;;23.80;11.90;;;;;;;-0.72;98.76;97506.38;214679;1298;138279;-79
2022/12/12 13:39:36;;;;;;;26.40;11.40;;;;;;;-0.78;99.17;97509.41;214245;1293;138299;-79
2022/12/12 13:44:47;;;;;;;27.80;13.50;;;;;;;-0.82;99.28;97522.71;214390;1290;138184;-80
2022/12/12 13:50:09;;;;;;;35.10;15.00;;;;;;;-0.87;99.43;97525.23;214094;1301;138134;-79
2022/12/12 13:55:11;;;;;;;27.80;12.80;;;;;;;-0.94;99.34;97531.52;214561;1288;24279;-80
2022/12/12 14:00:15;;;;;;;24.30;12.50;;;;;;;-0.97;99.48;97535.16;214517;1288;138045;-79
2022/12/12 14:05:26;;;;;;;35.20;14.40;;;;;;;-1.01;99.62;97537.41;214158;1296;138068;-80
2022/12/12 14:10:35;;;;;;;26.70;12.60;;;;;;;-1.03;99.83;97543.39;214360;1298;138146;-80
2022/12/12 14:15:37;;;;;;;25.00;11.10;;;;;;;-1.04;99.93;97551.20;214238;1294;138296;-79
2022/12/12 14:20:41;;;;;;;31.70;14.40;;;;;;;-1.07;99.88;97555.31;214765;1298;138337;-79
2022/12/12 14:25:43;;;;;;;31.30;14.40;;;;;;;-1.12;99.93;97561.04;214797;1294;138210;-78
2022/12/12 14:30:53;;;;;;;37.20;15.10;;;;;;;-1.15;100.00;97564.88;215379;1289;22525;-80
2022/12/12 14:36:07;;;;;;;41.20;17.20;;;;;;;-1.19;100.00;97565.71;214376;1288;138363;-75
2022/12/12 14:41:15;;;;;;;39.50;16.10;;;;;;;-1.22;100.00;97564.23;214565;1288;138433;-81
2022/12/12 14:46:17;;;;;;;39.20;17.10;;;;;;;-1.22;100.00;97567.10;214469;1301;138373;-75
2022/12/12 14:51:28;;;;;;;52.60;19.10;;;;;;;-1.25;100.00;97574.38;214507;1287;138767;-77
2022/12/12 14:56:35;;;;;;;45.10;17.60;;;;;;;-1.33;100.00;97575.14;214061;1287;138762;-76
2022/12/12 15:02:01;;;;;;;44.10;17.90;;;;;;;-1.39;100.00;97579.32;214812;1287;25561;-76
2022/12/12 15:07:22;;;;;;;37.30;15.60;;;;;;;-1.40;100.00;97580.50;214550;1289;22466;-75
2022/12/12 15:12:26;;;;;;;41.20;17.00;;;;;;;-1.41;100.00;97586.95;213644;1312;22608;-76
2022/12/12 15:17:31;;;;;;;39.70;15.30;;;;;;;-1.43;100.00;97590.98;213658;1312;25022;-76
2022/12/12 15:22:36;;;;;;;40.00;17.10;;;;;;;-1.47;100.00;97593.95;213695;1312;22471;-76
2022/12/12 15:27:38;;;;;;;33.20;14.80;;;;;;;-1.51;100.00;97602.81;213860;1312;22625;-75
2022/12/12 15:32:49;;;;;;;36.30;13.30;;;;;;;-1.55;100.00;97601.82;213823;1312;25470;-75
2022/12/12 15:38:06;;;;;;;35.50;14.20;;;;;;;-1.58;100.00;97609.95;213836;1312;22499;-74
2022/12/12 15:43:18;;;;;;;32.70;15.00;;;;;;;-1.59;100.00;97611.40;213655;1312;24472;-76
2022/12/12 15:48:21;;;;;;;33.10;13.70;;;;;;;-1.59;100.00;97616.49;213626;1312;22543;-75
2022/12/12 15:53:30;;;;;;;34.20;13.60;;;;;;;-1.58;100.00;97623.27;213682;1312;25585;-75
2022/12/12 15:58:41;;;;;;;26.80;11.40;;;;;;;-1.55;100.00;97622.98;213719;1312;22531;-76
2022/12/12 16:03:59;;;;;;;34.20;13.30;;;;;;;-1.52;100.00;97632.48;213700;1312;22694;-75
2022/12/12 16:09:10;;;;;;;27.90;12.40;;;;;;;-1.52;100.00;97631.50;213695;1312;24246;-75
2022/12/12 16:14:33;;;;;;;30.70;11.60;;;;;;;-1.49;100.00;97634.77;213953;1312;22535;-76
2022/12/12 16:19:53;;;;;;;28.10;12.70;;;;;;;-1.47;100.00;97635.23;213661;1311;22489;-76
2022/12/12 16:25:10;;;;;;;31.00;12.90;;;;;;;-1.46;100.00;97636.57;214147;1312;22520;-75
2022/12/12 16:30:13;;;;;;;23.00;11.20;;;;;;;-1.46;100.00;97641.23;213868;1312;23747;-76
2022/12/12 16:35:18;;;;;;;23.90;10.40;;;;;;;-1.45;100.00;97649.30;213678;1303;22498;-76
2022/12/12 16:40:20;;;;;;;26.90;11.10;;;;;;;-1.44;100.00;97656.61;213863;1312;22683;-76
2022/12/12 16:45:22;;;;;;;18.00;9.10;;;;;;;-1.45;100.00;97659.61;213618;1312;22823;-76
2022/12/12 16:50:24;;;;;;;18.10;7.90;;;;;;;-1.46;100.00;97660.64;213770;1312;25442;-76
2022/12/12 16:55:26;;;;;;;21.80;10.30;;;;;;;-1.48;100.00;97671.21;213609;1312;22500;-76
2022/12/12 17:00:28;;;;;;;19.10;9.20;;;;;;;-1.49;100.00;97676.29;213665;1306;22471;-75
2022/12/12 17:05:31;;;;;;;22.40;9.10;;;;;;;-1.52;100.00;97682.96;213697;1312;22606;-75
2022/12/12 17:10:35;;;;;;;20.50;9.30;;;;;;;-1.54;100.00;97690.18;213873;1312;22612;-75
2022/12/12 17:15:37;;;;;;;14.30;7.20;;;;;;;-1.57;100.00;97696.06;213721;1312;22692;-76
2022/12/12 17:20:38;;;;;;;17.20;8.50;;;;;;;-1.62;100.00;97698.83;213569;1312;22494;-76
2022/12/12 17:25:40;;;;;;;18.80;7.50;;;;;;;-1.65;100.00;97707.23;213655;1312;25236;-75
2022/12/12 17:30:42;;;;;;;16.00;6.30;;;;;;;-1.66;100.00;97708.14;213839;1312;22762;-77
2022/12/12 17:35:44;;;;;;;16.60;7.90;;;;;;;-1.69;100.00;97714.06;213620;1312;24274;-76
2022/12/12 17:40:46;;;;;;;17.70;7.90;;;;;;;-1.72;100.00;97716.91;214057;1312;23952;-76
2022/12/12 17:46:04;;;;;;;14.60;6.50;;;;;;;-1.75;100.00;97718.13;213965;1312;22592;-75
2022/12/12 17:51:08;;;;;;;14.00;7.10;;;;;;;-1.76;100.00;97727.61;213865;1312;23282;-74
2022/12/12 17:56:13;;;;;;;14.70;6.70;;;;;;;-1.79;100.00;97730.80;213862;1312;22475;-74
2022/12/12 18:01:21;;;;;;;14.30;6.90;;;;;;;-1.79;100.00;97732.84;213948;1312;24410;-75
2022/12/12 18:06:24;;;;;;;17.30;7.40;;;;;;;-1.80;100.00;97734.31;213936;1312;22529;-76
2022/12/12 18:11:30;;;;;;;13.10;6.50;;;;;;;-1.81;100.00;97737.70;213703;1312;25577;-75
2022/12/12 18:16:33;;;;;;;16.20;7.30;;;;;;;-1.82;100.00;97744.98;213700;1312;24731;-74
2022/12/12 18:21:36;;;;;;;12.90;7.70;;;;;;;-1.83;100.00;97744.86;213794;1312;22497;-74
2022/12/12 18:26:59;;;;;;;17.40;7.60;;;;;;;-1.85;100.00;97749.54;213729;1312;25534;-75
2022/12/12 18:32:03;;;;;;;14.20;6.80;;;;;;;-1.86;100.00;97755.13;213809;1312;22480;-75
2022/12/12 18:37:05;;;;;;;15.40;7.40;;;;;;;-1.88;100.00;97757.09;213879;1312;22486;-75
2022/12/12 18:42:07;;;;;;;15.40;7.10;;;;;;;-1.86;100.00;97762.75;213893;1312;22487;-75
2022/12/12 18:47:09;;;;;;;15.40;7.10;;;;;;;-1.86;100.00;97771.47;213679;1312;26499;-74
2022/12/12 18:52:10;;;;;;;14.70;6.70;;;;;;;-1.87;100.00;97781.10;213653;1312;22474;-76
2022/12/12 18:57:12;;;;;;;14.70;7.10;;;;;;;-1.89;100.00;97783.85;213709;1312;22940;-75
2022/12/12 19:02:14;;;;;;;12.50;5.70;;;;;;;-1.90;100.00;97792.23;213621;1312;26364;-75
2022/12/12 19:07:17;;;;;;;12.60;6.10;;;;;;;-1.93;100.00;97800.20;213824;1312;25302;-76
2022/12/12 19:12:19;;;;;;;11.80;6.30;;;;;;;-1.94;100.00;97807.68;213767;1312;23011;-75
2022/12/12 19:17:20;;;;;;;12.10;6.30;;;;;;;-1.95;100.00;97814.38;213876;1312;22481;-75
2022/12/12 19:22:27;;;;;;;13.10;6.50;;;;;;;-1.96;100.00;97819.99;213554;1312;25478;-76
2022/12/12 19:27:49;;;;;;;9.80;5.60;;;;;;;-1.99;100.00;97823.40;213725;1312;23111;-76
2022/12/12 19:32:50;;;;;;;13.30;5.90;;;;;;;-2.03;100.00;97825.88;213541;1312;22826;-75
2022/12/12 19:37:52;;;;;;;11.90;5.60;;;;;;;-2.08;100.00;97833.13;213869;1306;22532;-76
2022/12/12 19:42:54;;;;;;;10.90;5.70;;;;;;;-2.10;100.00;97842.38;213790;1312;22614;-75
2022/12/12 19:47:56;;;;;;;10.30;4.90;;;;;;;-2.14;100.00;97854.29;213589;1290;25637;-74
2022/12/12 19:53:00;;;;;;;11.90;5.50;;;;;;;-2.20;100.00;97863.30;213904;1312;25362;-74
2022/12/12 19:58:03;;;;;;;10.80;4.80;;;;;;;-2.25;100.00;97865.96;213977;1312;22496;-76
2022/12/12 20:03:05;;;;;;;11.20;5.80;;;;;;;-2.28;100.00;97870.52;213926;1312;22526;-75
2022/12/12 20:08:07;;;;;;;13.40;5.60;;;;;;;-2.30;100.00;97872.71;214097;1312;22543;-74
2022/12/12 20:13:10;;;;;;;9.50;4.90;;;;;;;-2.33;100.00;97876.95;214150;1312;22560;-75
2022/12/12 20:18:12;;;;;;;11.20;4.70;;;;;;;-2.34;100.00;97876.67;213934;1311;22650;-75
2022/12/12 20:23:17;;;;;;;11.30;5.50;;;;;;;-2.36;100.00;97884.91;214006;1312;22638;-75
2022/12/12 20:28:19;;;;;;;11.80;5.70;;;;;;;-2.39;100.00;97897.42;213973;1312;24905;-74
2022/12/12 20:33:20;;;;;;;12.50;5.40;;;;;;;-2.44;100.00;97901.20;213968;1312;22563;-74
2022/12/12 20:38:24;;;;;;;9.00;4.90;;;;;;;-2.46;100.00;97907.29;213922;1312;22535;-75
2022/12/12 20:43:27;;;;;;;11.90;5.30;;;;;;;-2.49;100.00;97911.50;213509;1312;23183;-75
2022/12/12 20:48:29;;;;;;;10.20;5.10;;;;;;;-2.52;100.00;97910.58;213807;1312;25639;-73
2022/12/12 20:53:31;;;;;;;10.90;4.30;;;;;;;-2.54;100.00;97914.41;213974;1312;24474;-74
2022/12/12 20:58:38;;;;;;;9.10;4.70;;;;;;;-2.58;100.00;97917.75;213938;1312;24777;-75
2022/12/12 21:03:40;;;;;;;12.80;6.40;;;;;;;-2.59;99.99;97921.29;214115;1312;25348;-75
2022/12/12 21:08:46;;;;;;;13.60;6.20;;;;;;;-2.59;100.00;97928.15;214028;1312;22551;-74
2022/12/12 21:13:49;;;;;;;16.10;7.10;;;;;;;-2.59;100.00;97939.84;214015;1312;22634;-76
2022/12/12 21:18:54;;;;;;;15.10;7.40;;;;;;;-2.58;100.00;97953.79;213959;1312;23418;-76
2022/12/12 21:23:57;;;;;;;12.30;6.00;;;;;;;-2.56;100.00;97961.52;213884;1312;25485;-75
2022/12/12 21:29:00;;;;;;;12.40;6.20;;;;;;;-2.58;99.97;97967.99;213639;1312;24419;-75
2022/12/12 21:34:04;;;;;;;15.20;7.10;;;;;;;-2.59;99.97;97975.43;214024;1312;22481;-75
2022/12/12 21:39:06;;;;;;;15.70;7.50;;;;;;;-2.59;99.99;97969.54;213915;1312;22965;-74
2022/12/12 21:44:08;;;;;;;12.50;6.50;;;;;;;-2.60;100.00;97971.36;213457;1312;24194;-75
2022/12/12 21:49:24;;;;;;;10.30;5.40;;;;;;;-2.64;99.51;97972.23;213746;1312;22605;-74
2022/12/12 21:54:29;;;;;;;11.70;5.30;;;;;;;-2.72;99.85;97978.58;213808;1312;22476;-75
2022/12/12 21:59:31;;;;;;;12.50;5.70;;;;;;;-2.78;99.76;97990.32;213515;1312;22708;-74
2022/12/12 22:04:33;;;;;;;12.00;5.20;;;;;;;-2.81;99.81;98002.56;213826;1283;25492;-74
2022/12/12 22:09:35;;;;;;;11.20;5.50;;;;;;;-2.81;99.85;98006.48;213778;1312;22492;-75
2022/12/12 22:14:40;;;;;;;11.30;5.50;;;;;;;-2.84;99.46;98014.54;213741;1307;22604;-74
2022/12/12 22:19:42;;;;;;;11.70;5.70;;;;;;;-2.90;99.55;98001.27;213870;1310;22610;-74
2022/12/12 22:24:44;;;;;;;10.70;5.10;;;;;;;-3.00;99.02;98003.67;213840;1311;22562;-76
2022/12/12 22:29:45;;;;;;;11.70;5.80;;;;;;;-3.04;99.23;98013.36;213707;1312;24658;-75
2022/12/12 22:34:47;;;;;;;10.30;4.60;;;;;;;-3.09;98.97;98016.92;213859;1312;26621;-74
2022/12/12 22:39:49;;;;;;;9.50;5.00;;;;;;;-3.12;99.08;98021.30;213771;1310;23297;-74
2022/12/12 22:44:52;;;;;;;11.20;5.60;;;;;;;-3.13;98.99;98021.80;213711;1312;124573;-75
2022/12/12 22:49:54;;;;;;;15.20;6.20;;;;;;;-3.13;98.99;98029.09;213787;1312;22554;-74
2022/12/12 22:54:55;;;;;;;12.30;6.10;;;;;;;-3.12;99.13;98035.25;213812;1312;25502;-74
2022/12/12 22:59:57;;;;;;;15.40;8.30;;;;;;;-3.12;99.05;98039.80;213853;1312;23082;-75
2022/12/12 23:04:59;;;;;;;11.80;6.80;;;;;;;-3.15;99.08;98049.02;213763;1312;22490;-75
2022/12/12 23:10:01;;;;;;;15.50;6.90;;;;;;;-3.20;98.88;98048.36;213821;1309;22583;-74
2022/12/12 23:15:03;;;;;;;12.00;7.10;;;;;;;-3.22;98.95;98050.46;213827;1312;22620;-75
2022/12/12 23:20:06;;;;;;;16.10;7.30;;;;;;;-3.26;98.65;98048.45;213915;1304;23818;-75
2022/12/12 23:25:08;;;;;;;15.00;7.50;;;;;;;-3.32;98.66;98049.76;213838;1312;23078;-75
2022/12/12 23:30:10;;;;;;;15.90;7.80;;;;;;;-3.37;98.75;98051.33;213779;1312;22683;-74